sensor_id;sensor_type;location;lat;lon;timestamp;temperature;humidity
4293;DHT22;2160;51.172;6.808;2024-02-21T05:00:54;12.30;99.90
4293;DHT22;2160;51.172;6.808;2024-02-21T05:03:57;12.40;99.90
4293;DHT22;2160;51.172;6.808;2024-02-21T05:07:08;12.40;99.90
4293;DHT22;2160;51.172;6.808;2024-02-21T05:13:23;12.50;99.90
4293;DHT22;2160;51.172;6.808;2024-02-21T05:16:49;12.60;99.90
4293;DHT22;2160;51.172;6.808;2024-02-21T05:23:22;12.50;99.90
4293;DHT22;2160;51.172;6.808;2024-02-21T05:26:12;12.50;99.90
4293;DHT22;2160;51.172;6.808;2024-02-21T05:29:27;12.50;99.90
4293;DHT22;2160;51.172;6.808;2024-02-21T05:32:31;12.60;99.90
4293;DHT22;2160;51.172;6.808;2024-02-21T05:36:04;12.60;99.90
4293;DHT22;2160;51.172;6.808;2024-02-21T05:42:26;12.80;99.90
4293;DHT22;2160;51.172;6.808;2024-02-21T05:49:03;12.70;99.90
4293;DHT22;2160;51.172;6.808;2024-02-21T05:52:07;12.40;99.90
4293;DHT22;2160;51.172;6.808;2024-02-21T05:55:24;12.30;99.90
4293;DHT22;2160;51.172;6.808;2024-02-21T05:58:46;12.40;99.90
4293;DHT22;2160;51.172;6.808;2024-02-21T06:02:34;12.30;99.90
4293;DHT22;2160;51.172;6.808;2024-02-21T06:06:06;12.30;99.90
4293;DHT22;2160;51.172;6.808;2024-02-21T06:09:07;12.20;99.90
4293;DHT22;2160;51.172;6.808;2024-02-21T06:15:54;12.40;99.90
4293;DHT22;2160;51.172;6.808;2024-02-21T06:26:04;12.50;99.90
4293;DHT22;2160;51.172;6.808;2024-02-21T06:29:06;12.50;99.90
4293;DHT22;2160;51.172;6.808;2024-02-21T06:34:56;12.40;99.90
4293;DHT22;2160;51.172;6.808;2024-02-21T06:35:31;12.50;99.90
4293;DHT22;2160;51.172;6.808;2024-02-21T06:38:36;12.50;99.90
4293;DHT22;2160;51.172;6.808;2024-02-21T06:52:49;12.30;99.90
4293;DHT22;2160;51.172;6.808;2024-02-21T06:56:05;12.50;99.90
4293;DHT22;2160;51.172;6.808;2024-02-21T06:59:18;12.60;99.90
4293;DHT22;2160;51.172;6.808;2024-02-21T07:02:51;12.40;99.90
4293;DHT22;2160;51.172;6.808;2024-02-21T07:09:37;12.40;99.90
4293;DHT22;2160;51.172;6.808;2024-02-21T07:16:08;12.20;99.90
4293;DHT22;2160;51.172;6.808;2024-02-21T07:19:13;12.20;99.90
4293;DHT22;2160;51.172;6.808;2024-02-21T07:22:25;12.00;99.90
4293;DHT22;2160;51.172;6.808;2024-02-21T07:25:26;12.10;99.90
4293;DHT22;2160;51.172;6.808;2024-02-21T07:28:24;12.40;99.90
4293;DHT22;2160;51.172;6.808;2024-02-21T07:31:13;12.30;99.90
4293;DHT22;2160;51.172;6.808;2024-02-21T07:34:11;12.20;99.90
4293;DHT22;2160;51.172;6.808;2024-02-21T07:38:10;12.20;99.90
4293;DHT22;2160;51.172;6.808;2024-02-21T07:50:00;12.20;99.90
4293;DHT22;2160;51.172;6.808;2024-02-21T07:53:02;12.20;99.90
4293;DHT22;2160;51.172;6.808;2024-02-21T07:56:02;12.20;99.90
4293;DHT22;2160;51.172;6.808;2024-02-21T07:59:00;12.30;99.90
4293;DHT22;2160;51.172;6.808;2024-02-21T08:01:49;12.20;99.90
4293;DHT22;2160;51.172;6.808;2024-02-21T08:08:16;12.40;99.90
4293;DHT22;2160;51.172;6.808;2024-02-21T08:11:49;12.50;99.90
4293;DHT22;2160;51.172;6.808;2024-02-21T08:14:40;12.60;99.90
4293;DHT22;2160;51.172;6.808;2024-02-21T08:17:59;12.60;99.90
4293;DHT22;2160;51.172;6.808;2024-02-21T08:20:55;12.30;99.90
4293;DHT22;2160;51.172;6.808;2024-02-21T08:23:46;12.20;99.90
4293;DHT22;2160;51.172;6.808;2024-02-21T08:27:09;12.20;99.90
4293;DHT22;2160;51.172;6.808;2024-02-21T08:29:56;12.10;99.90
4293;DHT22;2160;51.172;6.808;2024-02-21T08:32:52;12.10;99.90
4293;DHT22;2160;51.172;6.808;2024-02-21T08:36:01;12.40;99.90
4293;DHT22;2160;51.172;6.808;2024-02-21T08:39:31;12.10;99.90
4293;DHT22;2160;51.172;6.808;2024-02-21T08:43:03;12.10;99.90
4293;DHT22;2160;51.172;6.808;2024-02-21T08:45:56;12.30;99.90
4293;DHT22;2160;51.172;6.808;2024-02-21T08:49:45;12.30;99.90
4293;DHT22;2160;51.172;6.808;2024-02-21T08:53:04;11.90;99.90
4293;DHT22;2160;51.172;6.808;2024-02-21T08:56:04;11.90;99.90
4293;DHT22;2160;51.172;6.808;2024-02-21T08:58:50;12.10;99.90
4293;DHT22;2160;51.172;6.808;2024-02-21T09:01:53;12.20;99.90
4293;DHT22;2160;51.172;6.808;2024-02-21T09:04:37;12.30;99.90
4293;DHT22;2160;51.172;6.808;2024-02-21T09:07:44;12.20;99.90
4293;DHT22;2160;51.172;6.808;2024-02-21T09:13:03;12.30;99.90
4293;DHT22;2160;51.172;6.808;2024-02-21T09:16:02;12.20;99.90
4293;DHT22;2160;51.172;6.808;2024-02-21T09:19:38;12.40;99.90
4293;DHT22;2160;51.172;6.808;2024-02-21T09:22:24;12.50;99.90
4293;DHT22;2160;51.172;6.808;2024-02-21T09:28:35;12.60;99.90
4293;DHT22;2160;51.172;6.808;2024-02-21T09:58:14;13.20;99.90
4293;DHT22;2160;51.172;6.808;2024-02-21T10:01:21;13.40;99.90
4293;DHT22;2160;51.172;6.808;2024-02-21T10:05:05;13.30;99.90
4293;DHT22;2160;51.172;6.808;2024-02-21T10:07:42;13.20;99.90
4293;DHT22;2160;51.172;6.808;2024-02-21T10:10:30;13.30;99.90
4293;DHT22;2160;51.172;6.808;2024-02-21T10:14:23;13.20;99.90
4293;DHT22;2160;51.172;6.808;2024-02-21T10:21:22;13.00;99.90
4293;DHT22;2160;51.172;6.808;2024-02-21T10:24:41;13.10;99.90
4293;DHT22;2160;51.172;6.808;2024-02-21T10:27:52;13.40;99.90
4293;DHT22;2160;51.172;6.808;2024-02-21T10:36:18;13.50;99.90
4293;DHT22;2160;51.172;6.808;2024-02-21T10:38:42;13.60;99.90
4293;DHT22;2160;51.172;6.808;2024-02-21T11:01:08;14.40;99.90
4293;DHT22;2160;51.172;6.808;2024-02-21T11:03:36;14.50;99.90
4293;DHT22;2160;51.172;6.808;2024-02-21T11:06:04;14.50;99.90
4293;DHT22;2160;51.172;6.808;2024-02-21T11:08:32;14.80;99.90
4293;DHT22;2160;51.172;6.808;2024-02-21T11:10:59;15.10;99.90
4293;DHT22;2160;51.172;6.808;2024-02-21T11:13:35;15.20;99.90
4293;DHT22;2160;51.172;6.808;2024-02-21T11:16:09;15.20;99.90
4293;DHT22;2160;51.172;6.808;2024-02-21T11:18:36;15.20;99.90
4293;DHT22;2160;51.172;6.808;2024-02-21T11:21:04;15.00;99.90
4293;DHT22;2160;51.172;6.808;2024-02-21T11:23:31;15.00;99.90
4293;DHT22;2160;51.172;6.808;2024-02-21T11:26:06;15.10;99.90
4293;DHT22;2160;51.172;6.808;2024-02-21T11:28:33;15.30;99.90
4293;DHT22;2160;51.172;6.808;2024-02-21T11:31:12;15.40;99.90
4293;DHT22;2160;51.172;6.808;2024-02-21T11:33:40;15.30;99.90
4293;DHT22;2160;51.172;6.808;2024-02-21T11:36:08;15.30;99.90
4293;DHT22;2160;51.172;6.808;2024-02-21T11:38:35;15.30;99.90
4293;DHT22;2160;51.172;6.808;2024-02-21T11:41:03;15.20;99.90
4293;DHT22;2160;51.172;6.808;2024-02-21T11:43:35;15.00;99.90
4293;DHT22;2160;51.172;6.808;2024-02-21T11:46:02;15.00;99.90
4293;DHT22;2160;51.172;6.808;2024-02-21T11:48:33;14.90;99.90
4293;DHT22;2160;51.172;6.808;2024-02-21T11:51:00;14.90;99.90
4293;DHT22;2160;51.172;6.808;2024-02-21T11:53:29;14.90;99.90
4293;DHT22;2160;51.172;6.808;2024-02-21T11:55:56;15.00;99.90
4293;DHT22;2160;51.172;6.808;2024-02-21T11:58:24;15.00;99.90
4293;DHT22;2160;51.172;6.808;2024-02-21T12:00:52;15.00;99.90
4293;DHT22;2160;51.172;6.808;2024-02-21T12:03:19;15.00;99.90
4293;DHT22;2160;51.172;6.808;2024-02-21T12:05:48;15.10;99.90
4293;DHT22;2160;51.172;6.808;2024-02-21T12:08:15;14.90;99.90
4293;DHT22;2160;51.172;6.808;2024-02-21T12:10:43;15.00;99.90
4293;DHT22;2160;51.172;6.808;2024-02-21T12:13:16;14.90;99.90
4293;DHT22;2160;51.172;6.808;2024-02-21T12:15:47;14.90;99.90
4293;DHT22;2160;51.172;6.808;2024-02-21T12:18:16;15.00;99.90
4293;DHT22;2160;51.172;6.808;2024-02-21T12:20:44;15.00;99.90
4293;DHT22;2160;51.172;6.808;2024-02-21T12:23:18;15.20;99.90
4293;DHT22;2160;51.172;6.808;2024-02-21T12:25:48;15.20;99.90
4293;DHT22;2160;51.172;6.808;2024-02-21T12:28:15;15.20;99.90
4293;DHT22;2160;51.172;6.808;2024-02-21T12:30:43;15.20;99.90
4293;DHT22;2160;51.172;6.808;2024-02-21T12:33:10;15.50;99.90
4293;DHT22;2160;51.172;6.808;2024-02-21T12:35:37;15.60;99.90
4293;DHT22;2160;51.172;6.808;2024-02-21T12:38:04;15.80;99.90
4293;DHT22;2160;51.172;6.808;2024-02-21T12:40:33;16.00;99.90
4293;DHT22;2160;51.172;6.808;2024-02-21T12:43:01;15.90;99.90
4293;DHT22;2160;51.172;6.808;2024-02-21T12:45:31;15.80;99.90
4293;DHT22;2160;51.172;6.808;2024-02-21T12:47:59;15.80;99.90
4293;DHT22;2160;51.172;6.808;2024-02-21T12:50:26;15.80;99.90
4293;DHT22;2160;51.172;6.808;2024-02-21T12:52:53;16.00;99.90
4293;DHT22;2160;51.172;6.808;2024-02-21T12:55:21;16.20;99.90
4293;DHT22;2160;51.172;6.808;2024-02-21T12:57:49;16.30;99.90
4293;DHT22;2160;51.172;6.808;2024-02-21T13:00:17;16.40;99.90
4293;DHT22;2160;51.172;6.808;2024-02-21T13:02:45;16.00;99.90
4293;DHT22;2160;51.172;6.808;2024-02-21T13:05:12;16.20;99.90
4293;DHT22;2160;51.172;6.808;2024-02-21T13:07:40;16.40;99.90
4293;DHT22;2160;51.172;6.808;2024-02-21T13:10:07;16.50;99.90
4293;DHT22;2160;51.172;6.808;2024-02-21T13:12:35;16.30;99.90
4293;DHT22;2160;51.172;6.808;2024-02-21T13:15:04;16.40;99.90
4293;DHT22;2160;51.172;6.808;2024-02-21T13:17:32;16.70;99.90
4293;DHT22;2160;51.172;6.808;2024-02-21T13:19:59;17.00;99.90
4293;DHT22;2160;51.172;6.808;2024-02-21T13:22:26;17.30;99.90
4293;DHT22;2160;51.172;6.808;2024-02-21T13:24:53;17.40;99.10
4293;DHT22;2160;51.172;6.808;2024-02-21T13:27:20;17.50;99.90
4293;DHT22;2160;51.172;6.808;2024-02-21T13:29:48;17.50;99.00
4293;DHT22;2160;51.172;6.808;2024-02-21T13:32:16;17.00;98.90
4293;DHT22;2160;51.172;6.808;2024-02-21T13:34:44;17.20;98.80
4293;DHT22;2160;51.172;6.808;2024-02-21T13:37:11;17.30;98.80
4293;DHT22;2160;51.172;6.808;2024-02-21T13:39:44;16.90;98.90
4293;DHT22;2160;51.172;6.808;2024-02-21T13:42:13;16.50;98.90
4293;DHT22;2160;51.172;6.808;2024-02-21T13:44:41;16.30;99.40
4293;DHT22;2160;51.172;6.808;2024-02-21T13:47:09;16.20;99.90
4293;DHT22;2160;51.172;6.808;2024-02-21T13:49:43;16.30;99.90
4293;DHT22;2160;51.172;6.808;2024-02-21T13:52:11;16.20;99.90
4293;DHT22;2160;51.172;6.808;2024-02-21T13:54:39;16.00;99.20
4293;DHT22;2160;51.172;6.808;2024-02-21T13:57:10;15.80;98.70
4293;DHT22;2160;51.172;6.808;2024-02-21T13:59:41;15.70;99.90
4293;DHT22;2160;51.172;6.808;2024-02-21T14:02:09;15.50;99.90
4293;DHT22;2160;51.172;6.808;2024-02-21T14:04:38;15.70;99.90
4293;DHT22;2160;51.172;6.808;2024-02-21T14:07:12;15.80;99.90
4293;DHT22;2160;51.172;6.808;2024-02-21T14:09:40;15.70;99.90
4293;DHT22;2160;51.172;6.808;2024-02-21T14:12:07;15.70;99.90
4293;DHT22;2160;51.172;6.808;2024-02-21T14:14:35;15.60;99.90
4293;DHT22;2160;51.172;6.808;2024-02-21T14:17:02;15.70;99.90
4293;DHT22;2160;51.172;6.808;2024-02-21T14:19:30;15.70;99.90
4293;DHT22;2160;51.172;6.808;2024-02-21T14:21:59;15.60;99.90
4293;DHT22;2160;51.172;6.808;2024-02-21T14:24:28;15.70;99.90
4293;DHT22;2160;51.172;6.808;2024-02-21T14:26:56;15.80;99.90
4293;DHT22;2160;51.172;6.808;2024-02-21T14:29:23;15.70;99.60
4293;DHT22;2160;51.172;6.808;2024-02-21T14:31:51;15.80;99.90
4293;DHT22;2160;51.172;6.808;2024-02-21T14:34:19;16.10;99.50
4293;DHT22;2160;51.172;6.808;2024-02-21T14:36:47;16.20;99.80
4293;DHT22;2160;51.172;6.808;2024-02-21T14:39:20;16.30;99.90
4293;DHT22;2160;51.172;6.808;2024-02-21T14:41:48;16.60;99.80
4293;DHT22;2160;51.172;6.808;2024-02-21T14:44:15;16.50;99.90
4293;DHT22;2160;51.172;6.808;2024-02-21T14:46:43;16.30;98.80
4293;DHT22;2160;51.172;6.808;2024-02-21T14:49:10;16.20;99.70
4293;DHT22;2160;51.172;6.808;2024-02-21T14:51:38;16.30;99.90
4293;DHT22;2160;51.172;6.808;2024-02-21T14:54:05;16.30;99.90
4293;DHT22;2160;51.172;6.808;2024-02-21T14:56:34;16.20;99.40
4293;DHT22;2160;51.172;6.808;2024-02-21T14:59:01;16.00;99.90
4293;DHT22;2160;51.172;6.808;2024-02-21T15:01:29;15.80;99.70
4293;DHT22;2160;51.172;6.808;2024-02-21T15:03:57;15.70;99.90
4293;DHT22;2160;51.172;6.808;2024-02-21T15:06:25;15.70;99.90
4293;DHT22;2160;51.172;6.808;2024-02-21T15:08:54;15.80;99.90
4293;DHT22;2160;51.172;6.808;2024-02-21T15:11:21;15.70;99.90
4293;DHT22;2160;51.172;6.808;2024-02-21T15:13:50;15.70;99.90
4293;DHT22;2160;51.172;6.808;2024-02-21T15:16:18;15.50;99.90
4293;DHT22;2160;51.172;6.808;2024-02-21T15:18:45;15.60;99.90
4293;DHT22;2160;51.172;6.808;2024-02-21T15:21:12;15.70;99.90
4293;DHT22;2160;51.172;6.808;2024-02-21T15:23:41;15.50;99.90
4293;DHT22;2160;51.172;6.808;2024-02-21T15:26:08;15.50;99.90
4293;DHT22;2160;51.172;6.808;2024-02-21T15:28:35;15.30;99.90
4293;DHT22;2160;51.172;6.808;2024-02-21T15:31:04;15.40;99.90
4293;DHT22;2160;51.172;6.808;2024-02-21T15:33:31;15.40;99.90
4293;DHT22;2160;51.172;6.808;2024-02-21T15:35:59;15.40;99.90
4293;DHT22;2160;51.172;6.808;2024-02-21T15:38:26;15.40;99.90
4293;DHT22;2160;51.172;6.808;2024-02-21T15:40:54;15.20;99.90
4293;DHT22;2160;51.172;6.808;2024-02-21T15:43:22;15.00;99.90
4293;DHT22;2160;51.172;6.808;2024-02-21T15:45:50;15.10;99.90
4293;DHT22;2160;51.172;6.808;2024-02-21T15:48:19;15.00;99.90
4293;DHT22;2160;51.172;6.808;2024-02-21T15:50:48;14.70;99.90
4293;DHT22;2160;51.172;6.808;2024-02-21T15:53:16;14.70;99.90
4293;DHT22;2160;51.172;6.808;2024-02-21T15:55:43;14.70;99.90
4293;DHT22;2160;51.172;6.808;2024-02-21T15:58:11;14.90;99.90
4293;DHT22;2160;51.172;6.808;2024-02-21T16:00:39;14.90;99.90
4293;DHT22;2160;51.172;6.808;2024-02-21T16:03:06;15.00;99.90
4293;DHT22;2160;51.172;6.808;2024-02-21T16:05:35;14.70;99.90
4293;DHT22;2160;51.172;6.808;2024-02-21T16:08:04;14.80;99.90
4293;DHT22;2160;51.172;6.808;2024-02-21T16:10:31;14.60;99.90
4293;DHT22;2160;51.172;6.808;2024-02-21T16:12:58;14.70;99.90
4293;DHT22;2160;51.172;6.808;2024-02-21T16:15:26;14.50;99.90
4293;DHT22;2160;51.172;6.808;2024-02-21T16:17:55;14.40;99.90
4293;DHT22;2160;51.172;6.808;2024-02-21T16:20:22;14.40;99.90
4293;DHT22;2160;51.172;6.808;2024-02-21T16:22:52;14.50;99.90
4293;DHT22;2160;51.172;6.808;2024-02-21T16:25:21;14.30;99.90
4293;DHT22;2160;51.172;6.808;2024-02-21T16:27:48;14.40;99.90
4293;DHT22;2160;51.172;6.808;2024-02-21T16:30:16;14.50;99.90
4293;DHT22;2160;51.172;6.808;2024-02-21T16:32:44;14.50;99.90
4293;DHT22;2160;51.172;6.808;2024-02-21T16:35:11;14.50;99.90
4293;DHT22;2160;51.172;6.808;2024-02-21T16:37:38;14.30;99.90
4293;DHT22;2160;51.172;6.808;2024-02-21T16:40:09;14.30;99.90
4293;DHT22;2160;51.172;6.808;2024-02-21T16:42:36;14.30;99.90
4293;DHT22;2160;51.172;6.808;2024-02-21T16:45:08;14.20;99.90
4293;DHT22;2160;51.172;6.808;2024-02-21T16:47:35;14.20;99.90
4293;DHT22;2160;51.172;6.808;2024-02-21T16:50:06;14.20;99.90
4293;DHT22;2160;51.172;6.808;2024-02-21T16:52:34;14.20;99.90
4293;DHT22;2160;51.172;6.808;2024-02-21T17:05:57;13.60;99.90
4293;DHT22;2160;51.172;6.808;2024-02-21T17:09:26;13.70;99.90
4293;DHT22;2160;51.172;6.808;2024-02-21T17:12:44;13.80;99.90
4293;DHT22;2160;51.172;6.808;2024-02-21T17:16:41;13.60;99.90
4293;DHT22;2160;51.172;6.808;2024-02-21T17:19:41;13.60;99.90
4293;DHT22;2160;51.172;6.808;2024-02-21T17:27:29;13.40;99.90
4293;DHT22;2160;51.172;6.808;2024-02-21T17:34:19;13.40;99.90
4293;DHT22;2160;51.172;6.808;2024-02-21T17:37:34;13.20;99.90
4293;DHT22;2160;51.172;6.808;2024-02-21T17:40:19;13.10;99.90
4293;DHT22;2160;51.172;6.808;2024-02-21T17:45:46;12.90;99.90
4293;DHT22;2160;51.172;6.808;2024-02-21T17:48:12;13.10;99.90
4293;DHT22;2160;51.172;6.808;2024-02-21T17:58:53;12.90;99.90
4293;DHT22;2160;51.172;6.808;2024-02-21T18:02:24;12.90;99.90
4293;DHT22;2160;51.172;6.808;2024-02-21T18:05:07;12.70;99.90
4293;DHT22;2160;51.172;6.808;2024-02-21T18:07:58;12.80;99.90
4293;DHT22;2160;51.172;6.808;2024-02-21T18:14:10;12.70;99.90
4293;DHT22;2160;51.172;6.808;2024-02-21T18:16:54;12.70;99.90
4293;DHT22;2160;51.172;6.808;2024-02-21T18:20:08;12.60;99.90
4293;DHT22;2160;51.172;6.808;2024-02-21T18:23:29;12.60;99.90
4293;DHT22;2160;51.172;6.808;2024-02-21T18:27:09;12.50;99.90
4293;DHT22;2160;51.172;6.808;2024-02-21T18:30:56;12.40;99.90
4293;DHT22;2160;51.172;6.808;2024-02-21T18:37:15;12.20;99.90
4293;DHT22;2160;51.172;6.808;2024-02-21T18:40:35;12.10;99.90
4293;DHT22;2160;51.172;6.808;2024-02-21T18:45:00;12.20;99.90
4293;DHT22;2160;51.172;6.808;2024-02-21T18:58:16;12.00;99.90
4293;DHT22;2160;51.172;6.808;2024-02-21T19:01:36;12.00;99.90
4293;DHT22;2160;51.172;6.808;2024-02-21T19:04:55;11.90;99.90
4293;DHT22;2160;51.172;6.808;2024-02-21T19:50:39;11.60;99.90
4293;DHT22;2160;51.172;6.808;2024-02-21T19:53:06;11.70;99.90
4293;DHT22;2160;51.172;6.808;2024-02-21T19:55:34;11.80;99.90
4293;DHT22;2160;51.172;6.808;2024-02-21T19:58:02;11.90;99.90
4293;DHT22;2160;51.172;6.808;2024-02-21T20:00:30;11.90;99.90
4293;DHT22;2160;51.172;6.808;2024-02-21T20:02:58;11.90;99.90
4293;DHT22;2160;51.172;6.808;2024-02-21T20:05:26;11.70;99.90
4293;DHT22;2160;51.172;6.808;2024-02-21T20:38:04;11.80;99.90
4293;DHT22;2160;51.172;6.808;2024-02-21T20:40:33;11.50;99.90
4293;DHT22;2160;51.172;6.808;2024-02-21T20:43:00;11.50;99.90
4293;DHT22;2160;51.172;6.808;2024-02-21T20:45:29;11.80;99.90
4293;DHT22;2160;51.172;6.808;2024-02-21T20:47:57;11.90;99.90
4293;DHT22;2160;51.172;6.808;2024-02-21T20:50:25;11.90;99.90
4293;DHT22;2160;51.172;6.808;2024-02-21T20:52:56;11.90;99.90
4293;DHT22;2160;51.172;6.808;2024-02-21T20:55:24;11.90;99.90
4293;DHT22;2160;51.172;6.808;2024-02-21T20:57:51;11.90;99.90
4293;DHT22;2160;51.172;6.808;2024-02-21T21:00:19;11.90;99.90
4293;DHT22;2160;51.172;6.808;2024-02-21T21:02:48;11.90;99.90
4293;DHT22;2160;51.172;6.808;2024-02-21T21:05:15;11.90;99.90
4293;DHT22;2160;51.172;6.808;2024-02-21T21:07:43;11.80;99.90
4293;DHT22;2160;51.172;6.808;2024-02-21T21:10:12;11.70;99.90
4293;DHT22;2160;51.172;6.808;2024-02-21T21:12:41;11.80;99.90
4293;DHT22;2160;51.172;6.808;2024-02-21T21:15:09;11.80;99.90
4293;DHT22;2160;51.172;6.808;2024-02-21T21:17:36;11.90;99.90
4293;DHT22;2160;51.172;6.808;2024-02-21T21:20:08;11.90;99.90
4293;DHT22;2160;51.172;6.808;2024-02-21T21:22:37;11.80;99.90
4293;DHT22;2160;51.172;6.808;2024-02-21T21:25:06;11.90;99.90
4293;DHT22;2160;51.172;6.808;2024-02-21T21:27:35;11.70;99.90
4293;DHT22;2160;51.172;6.808;2024-02-21T21:30:07;11.70;99.90
4293;DHT22;2160;51.172;6.808;2024-02-21T21:32:36;11.70;99.90
4293;DHT22;2160;51.172;6.808;2024-02-21T21:35:04;11.70;99.90
4293;DHT22;2160;51.172;6.808;2024-02-21T21:37:32;11.80;99.90
4293;DHT22;2160;51.172;6.808;2024-02-21T21:40:00;11.80;99.90
4293;DHT22;2160;51.172;6.808;2024-02-21T21:42:27;11.90;99.90
4293;DHT22;2160;51.172;6.808;2024-02-21T21:44:56;11.90;99.90
4293;DHT22;2160;51.172;6.808;2024-02-21T21:47:24;12.10;99.90
4293;DHT22;2160;51.172;6.808;2024-02-21T21:49:51;11.90;99.90
4293;DHT22;2160;51.172;6.808;2024-02-21T21:52:18;11.90;99.90
4293;DHT22;2160;51.172;6.808;2024-02-21T21:54:46;11.90;99.90
4293;DHT22;2160;51.172;6.808;2024-02-21T21:57:13;11.90;99.90
4293;DHT22;2160;51.172;6.808;2024-02-21T21:59:40;11.80;99.90
4293;DHT22;2160;51.172;6.808;2024-02-21T22:02:09;11.80;99.90
4293;DHT22;2160;51.172;6.808;2024-02-21T22:04:37;11.80;99.90
4293;DHT22;2160;51.172;6.808;2024-02-21T22:07:05;11.90;99.90
4293;DHT22;2160;51.172;6.808;2024-02-21T22:09:32;11.90;99.90
4293;DHT22;2160;51.172;6.808;2024-02-21T22:12:00;12.00;99.90
4293;DHT22;2160;51.172;6.808;2024-02-21T22:14:27;11.90;99.90
4293;DHT22;2160;51.172;6.808;2024-02-21T22:16:55;12.10;99.90
4293;DHT22;2160;51.172;6.808;2024-02-21T22:19:24;12.00;99.90
4293;DHT22;2160;51.172;6.808;2024-02-21T22:21:51;11.90;99.90
4293;DHT22;2160;51.172;6.808;2024-02-21T22:24:19;12.00;99.90
4293;DHT22;2160;51.172;6.808;2024-02-21T22:26:46;12.00;99.90
4293;DHT22;2160;51.172;6.808;2024-02-21T22:29:16;12.00;99.90
4293;DHT22;2160;51.172;6.808;2024-02-21T22:31:43;12.00;99.90
4293;DHT22;2160;51.172;6.808;2024-02-21T22:34:11;12.10;99.90
4293;DHT22;2160;51.172;6.808;2024-02-21T22:36:40;12.00;99.90
4293;DHT22;2160;51.172;6.808;2024-02-21T22:39:07;12.00;99.90
4293;DHT22;2160;51.172;6.808;2024-02-21T22:41:38;12.10;99.90
4293;DHT22;2160;51.172;6.808;2024-02-21T22:44:05;12.00;99.90
4293;DHT22;2160;51.172;6.808;2024-02-21T22:46:33;12.00;99.90
4293;DHT22;2160;51.172;6.808;2024-02-21T22:49:00;12.00;99.90
4293;DHT22;2160;51.172;6.808;2024-02-21T22:51:28;12.10;99.90
4293;DHT22;2160;51.172;6.808;2024-02-21T22:53:57;11.90;99.90
4293;DHT22;2160;51.172;6.808;2024-02-21T22:56:25;12.00;99.90
4293;DHT22;2160;51.172;6.808;2024-02-21T22:58:53;12.00;99.90
4293;DHT22;2160;51.172;6.808;2024-02-21T23:01:22;12.10;99.90
4293;DHT22;2160;51.172;6.808;2024-02-21T23:03:51;12.20;99.90
4293;DHT22;2160;51.172;6.808;2024-02-21T23:06:18;12.30;99.90
4293;DHT22;2160;51.172;6.808;2024-02-21T23:08:46;12.20;99.90
4293;DHT22;2160;51.172;6.808;2024-02-21T23:11:15;12.10;99.90
4293;DHT22;2160;51.172;6.808;2024-02-21T23:13:42;12.20;99.90
4293;DHT22;2160;51.172;6.808;2024-02-21T23:16:10;12.10;99.90
4293;DHT22;2160;51.172;6.808;2024-02-21T23:18:37;12.10;99.90
4293;DHT22;2160;51.172;6.808;2024-02-21T23:21:09;12.00;99.90
4293;DHT22;2160;51.172;6.808;2024-02-21T23:23:37;12.20;99.90
4293;DHT22;2160;51.172;6.808;2024-02-21T23:26:04;12.30;99.90
4293;DHT22;2160;51.172;6.808;2024-02-21T23:28:34;12.30;99.90
4293;DHT22;2160;51.172;6.808;2024-02-21T23:31:01;12.30;99.90
4293;DHT22;2160;51.172;6.808;2024-02-21T23:33:28;12.30;99.90
4293;DHT22;2160;51.172;6.808;2024-02-21T23:36:02;12.40;99.90
4293;DHT22;2160;51.172;6.808;2024-02-21T23:38:31;12.20;99.90
4293;DHT22;2160;51.172;6.808;2024-02-21T23:40:58;12.10;99.90
4293;DHT22;2160;51.172;6.808;2024-02-21T23:43:26;12.40;99.90
4293;DHT22;2160;51.172;6.808;2024-02-21T23:45:56;12.50;99.90
4293;DHT22;2160;51.172;6.808;2024-02-21T23:48:24;12.40;99.90
4293;DHT22;2160;51.172;6.808;2024-02-21T23:50:51;12.40;99.90
4293;DHT22;2160;51.172;6.808;2024-02-21T23:53:19;12.50;99.90
4293;DHT22;2160;51.172;6.808;2024-02-21T23:55:47;12.50;99.90
4293;DHT22;2160;51.172;6.808;2024-02-21T23:58:22;12.50;99.90
